Time;durP1;ratioP1;P1;durP2;ratioP2;P2;SDS_P1;SDS_P2;PMS_P1;PMS_P2;Temp;Humidity;BMP_temperature;BMP_pressure;BME280_temperature;BME280_humidity;BME280_pressure;Samples;Min_cycle;Max_cycle;Signal;HPM_P1;HPM_P2
2024/02/09 00:00:46;;;;;;;5.13;1.93;;;;;;;10.58;100.00;94366.53;4976554;28;20999;-68
2024/02/09 00:03:13;;;;;;;5.53;1.93;;;;;;;10.40;100.00;94361.28;4977451;28;20212;-67
2024/02/09 00:05:39;;;;;;;6.97;2.50;;;;;;;10.30;100.00;94354.94;4976843;28;20566;-68
2024/02/09 00:08:07;;;;;;;7.73;1.70;;;;;;;10.46;100.00;94351.69;4977754;28;20211;-68
2024/02/09 00:10:36;;;;;;;3.80;1.17;;;;;;;10.41;100.00;94335.75;4976439;28;20717;-68
2024/02/09 00:13:04;;;;;;;4.67;1.80;;;;;;;10.39;100.00;94337.81;4977382;28;20231;-68
2024/02/09 00:15:31;;;;;;;5.47;2.30;;;;;;;10.41;100.00;94331.28;4977225;28;20212;-68
2024/02/09 00:17:58;;;;;;;9.27;1.90;;;;;;;10.40;100.00;94328.91;4977424;28;20677;-68
2024/02/09 00:20:25;;;;;;;4.93;1.67;;;;;;;10.43;100.00;94338.97;4976354;28;20227;-68
2024/02/09 00:22:51;;;;;;;4.70;1.63;;;;;;;10.49;100.00;94327.56;4977383;28;20204;-68
2024/02/09 00:25:18;;;;;;;4.70;1.30;;;;;;;10.50;100.00;94323.88;4977182;28;20459;-68
2024/02/09 00:27:44;;;;;;;7.20;1.97;;;;;;;10.48;100.00;94332.00;4976486;28;20656;-68
2024/02/09 00:30:13;;;;;;;8.33;1.47;;;;;;;10.53;100.00;94324.25;4976509;28;20239;-67
2024/02/09 00:32:41;;;;;;;4.53;2.50;;;;;;;10.51;100.00;94315.78;4976207;28;20265;-68
2024/02/09 00:35:09;;;;;;;2.60;1.40;;;;;;;10.65;100.00;94311.91;4976440;28;20218;-67
2024/02/09 00:37:38;;;;;;;2.00;1.53;;;;;;;10.61;100.00;94312.59;4977039;28;20215;-67
2024/02/09 00:40:05;;;;;;;3.20;1.50;;;;;;;10.58;100.00;94299.91;4977243;28;20900;-68
2024/02/09 00:42:34;;;;;;;2.50;1.30;;;;;;;10.30;100.00;94297.03;4976538;28;20333;-67
2024/02/09 00:45:01;;;;;;;4.97;1.73;;;;;;;10.29;100.00;94284.88;4976625;28;20211;-68
2024/02/09 00:47:27;;;;;;;4.07;1.80;;;;;;;10.13;100.00;94277.59;4976888;28;20689;-68
2024/02/09 00:49:54;;;;;;;3.47;1.70;;;;;;;10.07;100.00;94253.97;4976518;28;20222;-67
2024/02/09 00:52:22;;;;;;;5.33;2.07;;;;;;;10.11;100.00;94263.06;4975851;28;20394;-68
2024/02/09 00:54:48;;;;;;;5.23;1.10;;;;;;;10.06;100.00;94253.19;4976113;28;20214;-68
2024/02/09 00:57:15;;;;;;;4.10;2.03;;;;;;;10.27;100.00;94255.31;4976401;28;20536;-68
2024/02/09 00:59:42;;;;;;;11.43;1.50;;;;;;;10.66;100.00;94249.53;4975328;28;20200;-67
2024/02/09 01:02:09;;;;;;;5.60;1.57;;;;;;;10.55;100.00;94243.22;4975795;28;20495;-67
2024/02/09 01:04:36;;;;;;;5.73;1.60;;;;;;;10.58;100.00;94263.03;4976389;28;20199;-68
2024/02/09 01:07:03;;;;;;;5.50;2.37;;;;;;;10.50;100.00;94261.50;4976276;28;20203;-67
2024/02/09 01:09:32;;;;;;;4.80;1.47;;;;;;;10.90;100.00;94254.63;4975659;28;20272;-67
2024/02/09 01:11:59;;;;;;;6.93;1.90;;;;;;;10.77;100.00;94262.72;4976097;28;20234;-68
2024/02/09 02:47:07;;;;;;;4.07;1.00;;;;;;;10.98;100.00;94207.69;4975175;28;20203;-67
2024/02/09 03:06:01;;;;;;;1.20;0.90;;;;;;;10.81;100.00;94189.31;4974137;28;20688;-68
2024/02/09 03:08:28;;;;;;;4.23;1.30;;;;;;;10.86;100.00;94181.53;4974715;28;20218;-67
2024/02/09 03:10:56;;;;;;;2.03;1.07;;;;;;;10.74;100.00;94175.44;4973964;28;20693;-68
2024/02/09 03:13:23;;;;;;;3.70;1.57;;;;;;;10.78;100.00;94173.97;4974623;28;20219;-68
2024/02/09 03:15:52;;;;;;;2.40;1.03;;;;;;;10.79;100.00;94173.72;4974585;28;20211;-67
2024/02/09 03:18:22;;;;;;;7.00;1.57;;;;;;;10.84;100.00;94159.88;4974552;28;20199;-67
2024/02/09 03:20:49;;;;;;;3.60;1.23;;;;;;;10.73;100.00;94165.94;4974043;28;20230;-68
2024/02/09 03:23:19;;;;;;;4.30;0.77;;;;;;;10.66;100.00;94170.53;4974487;28;20210;-68
2024/02/09 03:25:45;;;;;;;2.50;1.10;;;;;;;10.64;100.00;94160.22;4974771;28;20202;-68
2024/02/09 03:28:14;;;;;;;3.10;1.10;;;;;;;10.70;100.00;94161.13;4974703;28;20570;-68
2024/02/09 03:30:41;;;;;;;2.20;1.30;;;;;;;10.64;100.00;94157.59;4973045;28;20552;-67
2024/02/09 03:33:07;;;;;;;2.23;0.80;;;;;;;10.64;100.00;94162.03;4973755;28;20419;-68
2024/02/09 03:35:35;;;;;;;1.90;1.00;;;;;;;10.79;100.00;94167.66;4974127;28;20199;-68
2024/02/09 03:38:02;;;;;;;1.00;0.90;;;;;;;10.68;100.00;94168.44;4973342;28;20215;-68
2024/02/09 03:40:29;;;;;;;12.07;1.70;;;;;;;10.69;100.00;94175.31;4972853;28;20738;-68
2024/02/09 03:42:55;;;;;;;2.10;1.10;;;;;;;10.62;100.00;94185.97;4973596;28;20200;-68
2024/02/09 03:45:22;;;;;;;1.10;0.80;;;;;;;10.70;100.00;94182.19;4973696;28;20314;-68
2024/02/09 03:47:50;;;;;;;2.23;1.40;;;;;;;10.77;100.00;94180.25;4973630;28;20207;-67
2024/02/09 03:50:16;;;;;;;3.53;0.80;;;;;;;10.77;100.00;94188.16;4971336;28;20227;-67
2024/02/09 03:52:44;;;;;;;4.93;1.20;;;;;;;10.74;100.00;94181.50;4973601;28;20234;-67
2024/02/09 03:55:16;;;;;;;3.77;1.27;;;;;;;10.74;100.00;94185.97;4973809;28;20526;-67
2024/02/09 03:57:44;;;;;;;3.53;1.50;;;;;;;10.72;100.00;94185.44;4973187;28;20200;-67
2024/02/09 04:00:15;;;;;;;4.00;1.10;;;;;;;10.66;100.00;94176.56;4972929;28;20225;-67
2024/02/09 04:02:42;;;;;;;4.97;1.43;;;;;;;10.63;100.00;94173.63;4974060;28;20195;-67
2024/02/09 04:05:08;;;;;;;3.67;1.13;;;;;;;10.65;100.00;94169.69;4974121;28;20208;-67
2024/02/09 04:07:35;;;;;;;1.37;0.90;;;;;;;10.65;100.00;94166.28;4973932;28;20203;-68
2024/02/09 04:10:03;;;;;;;3.57;1.40;;;;;;;10.79;100.00;94170.31;4972834;28;20227;-68
2024/02/09 04:12:29;;;;;;;2.07;1.00;;;;;;;10.60;100.00;94168.78;4973841;28;20211;-68
2024/02/09 04:14:56;;;;;;;3.47;1.10;;;;;;;10.55;100.00;94168.66;4975208;28;20698;-68
2024/02/09 04:17:27;;;;;;;1.23;0.83;;;;;;;10.51;100.00;94180.66;4975410;28;20477;-68
2024/02/09 04:19:54;;;;;;;3.97;1.40;;;;;;;10.52;100.00;94185.72;4974300;28;20230;-68
2024/02/09 04:22:20;;;;;;;1.23;1.03;;;;;;;10.48;100.00;94184.56;4973307;28;20455;-68
2024/02/09 04:24:47;;;;;;;3.30;1.73;;;;;;;10.51;100.00;94191.19;4974277;28;20214;-68
2024/02/09 04:27:16;;;;;;;8.53;3.77;;;;;;;10.69;100.00;94191.94;4973610;28;20203;-68
2024/02/09 04:29:42;;;;;;;5.27;2.60;;;;;;;10.47;100.00;94185.59;4972024;28;20272;-68
2024/02/09 04:32:09;;;;;;;3.23;1.57;;;;;;;10.50;100.00;94186.97;4973712;28;20671;-68
2024/02/09 04:34:35;;;;;;;2.23;1.23;;;;;;;10.51;100.00;94178.03;4973717;28;20231;-68
2024/02/09 04:37:02;;;;;;;3.00;1.07;;;;;;;10.36;100.00;94182.91;4974103;28;20234;-68
2024/02/09 04:39:28;;;;;;;2.87;1.20;;;;;;;10.44;100.00;94178.13;4976484;28;20203;-68
2024/02/09 04:41:55;;;;;;;1.87;1.13;;;;;;;10.28;100.00;94177.97;4976650;28;20237;-68
2024/02/09 04:44:24;;;;;;;3.13;1.10;;;;;;;10.59;100.00;94172.44;4976467;28;20199;-68
2024/02/09 04:46:51;;;;;;;2.77;1.10;;;;;;;10.51;100.00;94175.41;4977423;28;20204;-68
2024/02/09 04:49:17;;;;;;;7.83;2.37;;;;;;;10.43;100.00;94176.53;4976310;28;20207;-68
2024/02/09 04:51:45;;;;;;;16.20;5.23;;;;;;;10.55;100.00;94169.47;4976274;28;20230;-68
2024/02/09 04:54:12;;;;;;;7.50;2.40;;;;;;;10.46;100.00;94172.66;4976356;28;20219;-68
2024/02/09 04:56:39;;;;;;;8.53;1.43;;;;;;;10.45;100.00;94178.94;4976383;28;20199;-68
2024/02/09 04:59:08;;;;;;;12.30;2.73;;;;;;;10.63;100.00;94176.25;4975922;28;20211;-67
2024/02/09 05:01:38;;;;;;;22.30;4.33;;;;;;;10.69;100.00;94175.31;4976038;28;20223;-67
2024/02/09 05:04:07;;;;;;;10.63;4.93;;;;;;;10.75;100.00;94174.44;4976391;28;20615;-67
2024/02/09 05:06:34;;;;;;;12.07;2.77;;;;;;;10.60;100.00;94166.16;4976190;28;20439;-67
2024/02/09 05:09:00;;;;;;;5.63;1.90;;;;;;;10.73;100.00;94165.94;4976493;28;20211;-68
2024/02/09 05:11:29;;;;;;;9.73;1.53;;;;;;;10.83;100.00;94161.69;4975835;28;20223;-67
2024/02/09 05:13:56;;;;;;;13.00;4.83;;;;;;;10.77;100.00;94167.06;4976400;28;20230;-67
2024/02/09 05:16:22;;;;;;;5.43;2.40;;;;;;;10.72;100.00;94145.91;4976329;28;20233;-67
2024/02/09 05:18:51;;;;;;;5.40;2.00;;;;;;;10.76;100.00;94149.69;4977668;28;20209;-68
2024/02/09 05:21:18;;;;;;;5.63;1.87;;;;;;;10.82;100.00;94132.94;4974951;28;20218;-68
2024/02/09 05:23:45;;;;;;;5.97;2.47;;;;;;;10.77;100.00;94140.75;4975537;28;20221;-68
2024/02/09 05:26:12;;;;;;;10.53;2.93;;;;;;;10.93;100.00;94135.59;4976807;28;20229;-67
2024/02/09 05:28:42;;;;;;;5.53;2.40;;;;;;;10.92;100.00;94135.81;4976781;28;20577;-67
2024/02/09 05:31:13;;;;;;;4.50;2.47;;;;;;;10.89;100.00;94138.94;4975728;28;20760;-68
2024/02/09 05:33:39;;;;;;;4.50;1.80;;;;;;;10.85;100.00;94143.06;4976047;28;20223;-68
2024/02/09 05:36:08;;;;;;;6.03;1.50;;;;;;;10.89;100.00;94128.38;4976428;28;20204;-67
2024/02/09 05:38:35;;;;;;;8.97;2.07;;;;;;;10.66;100.00;94129.16;4975929;28;20251;-68
2024/02/09 05:41:02;;;;;;;5.43;1.13;;;;;;;10.66;100.00;94128.38;4975699;28;20223;-67
2024/02/09 05:43:29;;;;;;;2.10;1.30;;;;;;;10.69;100.00;94136.63;4975307;28;20218;-68
2024/02/09 05:45:55;;;;;;;3.77;1.20;;;;;;;10.69;100.00;94128.75;4975974;28;20230;-67
2024/02/09 05:48:22;;;;;;;4.63;1.97;;;;;;;10.80;100.00;94135.03;4976051;28;20217;-67
2024/02/09 05:50:49;;;;;;;4.70;1.83;;;;;;;10.82;100.00;94127.69;4975146;28;20227;-67
2024/02/09 05:53:18;;;;;;;3.00;1.63;;;;;;;10.91;100.00;94136.84;4975873;28;21021;-67
2024/02/09 05:55:46;;;;;;;3.00;1.13;;;;;;;10.76;100.00;94136.53;4975133;28;20199;-68
2024/02/09 05:58:12;;;;;;;4.87;1.77;;;;;;;10.57;100.00;94140.28;4975909;28;20207;-67
2024/02/09 06:00:39;;;;;;;3.40;1.60;;;;;;;10.62;100.00;94137.78;4974946;28;20223;-67
2024/02/09 06:03:07;;;;;;;7.37;1.90;;;;;;;10.58;100.00;94139.25;4975791;28;20408;-68
2024/02/09 06:05:38;;;;;;;2.17;1.33;;;;;;;10.67;100.00;94135.25;4975493;28;20230;-67
2024/02/09 06:08:08;;;;;;;4.37;1.47;;;;;;;10.74;100.00;94142.00;4976271;28;20955;-67
2024/02/09 06:10:36;;;;;;;2.50;1.27;;;;;;;10.90;100.00;94148.44;4975736;28;20219;-67
2024/02/09 06:13:02;;;;;;;7.07;1.90;;;;;;;10.62;100.00;94148.31;4976023;28;20200;-68
2024/02/09 06:15:29;;;;;;;1.73;1.10;;;;;;;10.65;100.00;94146.00;4976217;28;20203;-67
2024/02/09 06:17:56;;;;;;;2.77;1.30;;;;;;;10.70;100.00;94150.59;4975534;28;20835;-68
2024/02/09 06:20:24;;;;;;;2.60;1.63;;;;;;;10.76;100.00;94149.69;4976083;28;20231;-67
2024/02/09 06:22:52;;;;;;;9.10;1.77;;;;;;;10.83;100.00;94145.09;4975705;28;20201;-68
2024/02/09 06:25:19;;;;;;;4.97;1.40;;;;;;;10.81;100.00;94147.97;4975790;28;20204;-67
2024/02/09 06:27:47;;;;;;;2.43;1.17;;;;;;;10.98;100.00;94148.88;4975508;28;20206;-68
2024/02/09 06:30:14;;;;;;;5.07;1.30;;;;;;;10.85;100.00;94149.13;4975093;28;20234;-68
2024/02/09 06:32:41;;;;;;;2.23;1.20;;;;;;;10.59;100.00;94159.28;4975560;28;20984;-68
2024/02/09 06:35:08;;;;;;;4.60;1.50;;;;;;;10.70;100.00;94161.91;4975619;28;20227;-68
2024/02/09 06:37:35;;;;;;;3.43;1.20;;;;;;;10.74;100.00;94157.00;4975904;28;20783;-67
2024/02/09 06:40:02;;;;;;;5.50;2.10;;;;;;;10.80;100.00;94156.09;4975324;28;20300;-68
2024/02/09 06:42:28;;;;;;;3.97;1.87;;;;;;;10.74;100.00;94152.53;4975643;28;20202;-67
2024/02/09 06:44:56;;;;;;;5.23;2.60;;;;;;;10.66;100.00;94154.72;4975829;28;20199;-67
2024/02/09 06:47:24;;;;;;;7.63;2.27;;;;;;;10.70;100.00;94153.22;4976760;28;20215;-68
2024/02/09 06:49:50;;;;;;;4.57;2.07;;;;;;;10.75;100.00;94151.50;4974829;28;20203;-67
2024/02/09 06:52:18;;;;;;;2.57;1.23;;;;;;;10.76;100.00;94152.34;4972426;28;20517;-67
2024/02/09 06:54:45;;;;;;;2.87;1.80;;;;;;;10.72;100.00;94154.59;4974750;28;20622;-67
2024/02/09 06:57:14;;;;;;;7.97;1.17;;;;;;;10.74;100.00;94159.66;4974396;28;20207;-68
2024/02/09 06:59:43;;;;;;;3.23;1.73;;;;;;;10.82;100.00;94154.03;4973218;28;20211;-68
2024/02/09 07:02:11;;;;;;;4.23;1.73;;;;;;;10.83;100.00;94153.00;4974572;28;20234;-68
2024/02/09 07:04:40;;;;;;;4.33;1.20;;;;;;;10.76;100.00;94149.69;4974853;28;20227;-68
2024/02/09 07:07:08;;;;;;;3.43;1.57;;;;;;;10.72;100.00;94145.91;4974264;28;20961;-67
2024/02/09 07:09:36;;;;;;;3.47;1.73;;;;;;;10.79;100.00;94149.22;4974586;28;20291;-67
2024/02/09 07:12:03;;;;;;;1.80;1.20;;;;;;;10.93;100.00;94141.69;4974207;28;20673;-68
2024/02/09 07:14:30;;;;;;;3.47;1.23;;;;;;;10.78;100.00;94142.34;4974111;28;20227;-68
2024/02/09 07:16:57;;;;;;;3.30;1.37;;;;;;;10.85;100.00;94146.47;4974149;28;20215;-68
2024/02/09 07:19:25;;;;;;;5.10;1.77;;;;;;;11.02;100.00;94150.84;4973791;28;20210;-68
2024/02/09 07:21:51;;;;;;;8.93;1.63;;;;;;;10.76;100.00;94153.13;4974284;28;20226;-68
2024/02/09 07:24:18;;;;;;;3.17;1.50;;;;;;;10.77;100.00;94143.38;4973863;28;20204;-68
2024/02/09 07:26:44;;;;;;;5.07;2.10;;;;;;;10.85;100.00;94138.56;4973844;28;20221;-67
2024/02/09 07:29:11;;;;;;;4.93;2.40;;;;;;;10.75;100.00;94145.44;4973488;28;20588;-69
2024/02/09 07:31:37;;;;;;;5.23;1.30;;;;;;;10.90;100.00;94145.81;4974836;28;20656;-68
2024/02/09 07:34:04;;;;;;;3.60;1.90;;;;;;;10.89;100.00;94141.56;4974302;28;20235;-69
2024/02/09 07:36:34;;;;;;;5.00;2.30;;;;;;;11.14;100.00;94149.00;4975243;28;20207;-69
2024/02/09 07:39:01;;;;;;;10.67;2.70;;;;;;;10.92;100.00;94141.91;4974014;28;20268;-68
2024/02/09 07:41:30;;;;;;;12.23;3.60;;;;;;;11.00;100.00;94144.19;4974487;28;20223;-68
2024/02/09 07:43:56;;;;;;;13.37;4.77;;;;;;;10.85;100.00;94141.22;4975617;28;20278;-67
2024/02/09 07:46:23;;;;;;;5.57;2.80;;;;;;;10.99;100.00;94143.38;4974686;28;20207;-68
2024/02/09 07:48:50;;;;;;;8.10;2.50;;;;;;;10.95;100.00;94139.59;4975142;28;20207;-69
2024/02/09 07:51:20;;;;;;;4.83;2.50;;;;;;;11.01;100.00;94137.91;4975446;28;20774;-68
2024/02/09 07:53:52;;;;;;;5.53;2.60;;;;;;;11.15;100.00;94140.06;4975640;28;20238;-68
2024/02/09 07:56:19;;;;;;;6.33;2.67;;;;;;;11.08;100.00;94135.94;4974410;28;20281;-69
2024/02/09 07:58:45;;;;;;;8.07;2.70;;;;;;;11.00;100.00;94141.56;4974980;28;20233;-68
2024/02/09 08:01:12;;;;;;;5.87;2.20;;;;;;;10.97;100.00;94129.66;4973686;28;20223;-67
2024/02/09 08:03:38;;;;;;;4.13;2.13;;;;;;;10.81;100.00;94128.75;4974475;28;20215;-69
2024/02/09 08:06:05;;;;;;;6.03;3.03;;;;;;;10.94;100.00;94135.34;4971527;28;20222;-68
2024/02/09 08:08:32;;;;;;;10.20;3.63;;;;;;;10.83;100.00;94126.66;4972822;28;20199;-68
2024/02/09 08:11:00;;;;;;;5.97;2.70;;;;;;;10.95;100.00;94134.34;4971862;28;20223;-68
2024/02/09 08:13:26;;;;;;;3.70;2.20;;;;;;;10.93;100.00;94134.81;4976368;28;20207;-69
2024/02/09 08:15:55;;;;;;;4.73;2.57;;;;;;;10.91;100.00;94128.94;4976419;28;20732;-68
2024/02/09 08:18:21;;;;;;;6.10;2.77;;;;;;;10.97;100.00;94127.00;4975112;28;20203;-68
2024/02/09 08:20:48;;;;;;;5.27;2.37;;;;;;;10.90;100.00;94119.47;4973349;28;21004;-68
2024/02/09 08:23:15;;;;;;;4.97;2.77;;;;;;;11.05;100.00;94120.59;4975087;28;20764;-68
2024/02/09 08:25:41;;;;;;;7.90;3.07;;;;;;;11.11;100.00;94125.75;4975411;28;21252;-69
2024/02/09 08:28:09;;;;;;;7.17;3.30;;;;;;;11.32;100.00;94119.84;4974099;28;20850;-68
2024/02/09 08:30:36;;;;;;;4.87;2.27;;;;;;;11.04;100.00;94127.69;4974249;28;20234;-69
2024/02/09 08:33:02;;;;;;;3.50;2.37;;;;;;;11.19;100.00;94120.13;4974739;28;20733;-68
2024/02/09 08:35:29;;;;;;;3.77;1.80;;;;;;;11.40;100.00;94113.44;4976446;28;20713;-68
2024/02/09 08:37:55;;;;;;;5.43;3.07;;;;;;;11.47;100.00;94124.63;4976117;28;20203;-68
2024/02/09 08:40:22;;;;;;;5.90;2.20;;;;;;;11.42;100.00;94119.25;4974923;28;20597;-68
2024/02/09 08:42:48;;;;;;;6.07;2.43;;;;;;;11.47;100.00;94119.34;4976672;28;20602;-69
2024/02/09 08:45:16;;;;;;;4.67;2.10;;;;;;;11.41;100.00;94121.09;4976755;28;20208;-68
2024/02/09 08:47:43;;;;;;;7.37;1.67;;;;;;;11.43;100.00;94116.41;4976660;28;20204;-68
2024/02/09 08:50:09;;;;;;;7.23;2.67;;;;;;;11.63;100.00;94111.56;4976689;28;20231;-67
2024/02/09 08:52:36;;;;;;;6.00;2.50;;;;;;;11.56;100.00;94118.81;4976533;28;20199;-69
2024/02/09 08:55:02;;;;;;;4.50;2.40;;;;;;;11.68;100.00;94109.00;4977123;28;20227;-67
2024/02/09 08:57:29;;;;;;;4.67;2.30;;;;;;;11.80;100.00;94117.69;4977188;28;20203;-69
2024/02/09 08:59:55;;;;;;;3.80;2.00;;;;;;;11.82;100.00;94118.25;4975803;28;20231;-69
2024/02/09 09:02:23;;;;;;;7.87;2.33;;;;;;;12.00;100.00;94120.72;4976555;28;20225;-68
2024/02/09 09:04:50;;;;;;;7.60;2.20;;;;;;;12.02;100.00;94124.72;4977950;28;20203;-69
2024/02/09 09:07:17;;;;;;;4.50;2.10;;;;;;;11.85;100.00;94115.13;4977369;28;20204;-68
2024/02/09 09:09:43;;;;;;;5.43;2.10;;;;;;;12.19;100.00;94123.72;4976393;28;20199;-68
2024/02/09 09:12:10;;;;;;;4.53;2.30;;;;;;;12.44;100.00;94115.44;4976829;28;20211;-68
2024/02/09 09:14:38;;;;;;;4.97;1.83;;;;;;;12.42;100.00;94118.31;4975889;28;20250;-68
2024/02/09 09:17:05;;;;;;;3.67;2.00;;;;;;;12.32;100.00;94107.56;4976557;28;20214;-68
2024/02/09 09:19:33;;;;;;;6.03;2.30;;;;;;;12.47;100.00;94109.66;4976762;28;20211;-67
2024/02/09 09:21:59;;;;;;;4.10;1.87;;;;;;;12.29;100.00;94118.59;4977223;28;20211;-68
2024/02/09 09:24:26;;;;;;;3.10;2.07;;;;;;;12.22;100.00;94115.31;4975005;28;20200;-68
2024/02/09 09:26:55;;;;;;;3.53;1.90;;;;;;;12.34;100.00;94110.75;4978877;28;20203;-69
2024/02/09 09:29:23;;;;;;;4.03;1.90;;;;;;;12.20;100.00;94096.25;4974748;28;20624;-68
2024/02/09 09:31:51;;;;;;;3.37;1.87;;;;;;;12.27;100.00;94094.28;4975858;28;20223;-67
2024/02/09 09:34:17;;;;;;;3.17;1.57;;;;;;;12.14;100.00;94099.06;4975931;28;20317;-68
2024/02/09 09:36:45;;;;;;;3.43;1.97;;;;;;;12.39;100.00;94096.84;4976433;28;20203;-69
2024/02/09 09:39:12;;;;;;;4.63;2.20;;;;;;;12.21;100.00;94089.94;4975775;28;20657;-68
2024/02/09 09:41:40;;;;;;;4.90;2.53;;;;;;;12.23;100.00;94095.00;4975815;28;20226;-69
2024/02/09 09:44:07;;;;;;;2.07;1.40;;;;;;;12.28;100.00;94098.53;4976223;28;20913;-69
2024/02/09 09:46:39;;;;;;;10.53;2.90;;;;;;;12.20;100.00;94087.56;4976125;28;20218;-68
2024/02/09 09:49:08;;;;;;;6.03;2.50;;;;;;;12.33;100.00;94093.34;4975731;28;20211;-67
2024/02/09 09:51:37;;;;;;;5.87;2.43;;;;;;;12.16;100.00;94101.47;4975566;28;20269;-67
2024/02/09 09:54:08;;;;;;;6.13;2.17;;;;;;;12.57;100.00;94096.63;4975521;28;20214;-68
2024/02/09 09:56:37;;;;;;;6.97;2.87;;;;;;;12.57;100.00;94100.06;4975849;28;20204;-69
2024/02/09 09:59:04;;;;;;;6.10;2.87;;;;;;;12.71;100.00;94101.34;4975572;28;20211;-68
2024/02/09 10:01:32;;;;;;;6.17;2.27;;;;;;;12.72;100.00;94087.09;4975651;28;20230;-68
2024/02/09 10:03:59;;;;;;;5.77;2.07;;;;;;;12.59;100.00;94092.69;4976259;28;20257;-68
2024/02/09 10:06:28;;;;;;;3.37;1.90;;;;;;;12.76;100.00;94093.50;4976577;28;20288;-68
2024/02/09 10:08:55;;;;;;;4.33;2.13;;;;;;;12.83;100.00;94088.84;4976110;28;20805;-69
2024/02/09 10:11:23;;;;;;;6.70;2.43;;;;;;;12.98;100.00;94086.44;4975172;28;20698;-68
2024/02/09 10:13:51;;;;;;;5.80;2.23;;;;;;;13.11;100.00;94088.72;4975796;28;20219;-67
2024/02/09 10:16:18;;;;;;;2.63;1.87;;;;;;;12.59;100.00;94092.69;4969881;28;20230;-67
2024/02/09 10:18:46;;;;;;;3.00;1.60;;;;;;;13.08;100.00;94095.31;4974490;28;20272;-69
2024/02/09 10:21:12;;;;;;;1.70;1.17;;;;;;;13.11;100.00;94101.97;4974029;28;20231;-68
2024/02/09 10:23:39;;;;;;;1.90;1.30;;;;;;;12.99;100.00;94107.34;4973213;28;20577;-68
2024/02/09 10:26:06;;;;;;;2.03;1.67;;;;;;;13.28;100.00;94090.31;4974261;28;20200;-69
2024/02/09 10:28:34;;;;;;;2.13;1.47;;;;;;;13.37;100.00;94090.69;4973780;28;20203;-68
2024/02/09 10:31:01;;;;;;;2.67;1.20;;;;;;;13.25;100.00;94088.16;4971062;28;20267;-68
2024/02/09 10:33:28;;;;;;;2.73;1.27;;;;;;;13.28;100.00;94094.81;4972712;28;20207;-68
2024/02/09 10:35:55;;;;;;;4.43;1.33;;;;;;;13.17;100.00;94099.13;4973182;28;20225;-68
2024/02/09 10:38:22;;;;;;;4.00;1.50;;;;;;;13.32;100.00;94104.63;4972637;28;20207;-68
2024/02/09 10:40:53;;;;;;;1.70;1.10;;;;;;;13.01;100.00;94107.13;4972573;28;20215;-68
2024/02/09 10:43:22;;;;;;;2.63;1.70;;;;;;;13.33;100.00;94102.78;4973381;28;20261;-68
2024/02/09 10:45:51;;;;;;;3.00;1.47;;;;;;;12.98;100.00;94092.53;4973109;28;20203;-69
2024/02/09 10:48:22;;;;;;;3.40;1.27;;;;;;;13.49;100.00;94085.03;4973018;28;20284;-67
2024/02/09 10:50:49;;;;;;;3.77;1.37;;;;;;;13.51;100.00;94088.22;4972559;28;20237;-68
2024/02/09 10:53:23;;;;;;;1.77;1.20;;;;;;;13.40;100.00;94086.50;4972650;28;20209;-69
2024/02/09 10:56:02;;;;;;;3.90;1.37;;;;;;;13.68;100.00;94080.22;4973092;28;20230;-67
2024/02/09 10:58:31;;;;;;;2.87;1.33;;;;;;;13.41;100.00;94082.00;4973738;28;20284;-68
2024/02/09 11:01:00;;;;;;;2.07;1.20;;;;;;;13.57;100.00;94066.06;4971934;28;20223;-68
2024/02/09 11:03:27;;;;;;;2.38;1.20;;;;;;;13.64;100.00;94065.88;4972643;28;20212;-68
2024/02/09 11:05:55;;;;;;;2.57;1.20;;;;;;;13.71;100.00;94066.47;4973424;28;20222;-68
2024/02/09 11:08:23;;;;;;;5.90;1.10;;;;;;;13.96;100.00;94067.56;4972868;28;20199;-69
2024/02/09 11:10:57;;;;;;;2.47;1.33;;;;;;;14.20;100.00;94066.25;4972137;28;20227;-68
2024/02/09 11:13:24;;;;;;;2.58;1.23;;;;;;;13.65;100.00;94067.50;4972094;28;20199;-68
2024/02/09 11:15:56;;;;;;;2.30;1.20;;;;;;;13.76;100.00;94063.88;4972840;28;20339;-69
2024/02/09 11:18:30;;;;;;;3.03;1.43;;;;;;;13.84;100.00;94058.97;4972975;28;20214;-68
2024/02/09 11:21:01;;;;;;;2.27;1.20;;;;;;;13.70;100.00;94052.44;4972235;28;20222;-68
2024/02/09 11:23:28;;;;;;;3.23;1.60;;;;;;;13.60;100.00;94054.19;4973512;28;20575;-69
2024/02/09 11:25:58;;;;;;;2.53;1.30;;;;;;;13.73;100.00;94045.88;4972973;28;20653;-69
2024/02/09 11:28:25;;;;;;;1.87;1.10;;;;;;;13.59;100.00;94039.34;4972479;28;20621;-69
2024/02/09 11:30:56;;;;;;;4.20;1.55;;;;;;;13.55;100.00;94041.69;4971898;28;20227;-68
2024/02/09 11:33:24;;;;;;;1.70;1.33;;;;;;;13.63;100.00;94035.16;4972309;28;20298;-69
2024/02/09 11:35:51;;;;;;;1.67;0.97;;;;;;;13.83;100.00;94038.03;4972359;28;20219;-68
2024/02/09 11:38:20;;;;;;;1.73;1.27;;;;;;;13.91;100.00;94037.59;4972065;28;20228;-68
2024/02/09 11:40:48;;;;;;;1.98;1.23;;;;;;;14.00;100.00;94036.88;4970909;28;20752;-68
2024/02/09 11:43:15;;;;;;;2.93;1.50;;;;;;;13.73;100.00;94025.47;4973199;28;20207;-68
2024/02/09 11:45:41;;;;;;;2.00;1.23;;;;;;;13.26;100.00;94012.25;4974862;28;20207;-69
2024/02/09 11:48:09;;;;;;;2.73;1.13;;;;;;;13.80;100.00;94015.50;4976390;28;20336;-68
2024/02/09 11:50:37;;;;;;;2.40;1.57;;;;;;;13.90;100.00;94020.91;4975806;28;20230;-68
2024/02/09 11:53:04;;;;;;;1.20;0.95;;;;;;;13.83;100.00;94011.56;4977150;28;20229;-68
2024/02/09 11:55:31;;;;;;;2.40;1.35;;;;;;;13.93;100.00;94017.75;4977074;28;20231;-68
2024/02/09 11:57:59;;;;;;;4.65;1.38;;;;;;;13.91;100.00;94009.25;4975996;28;20211;-69
2024/02/09 12:00:26;;;;;;;4.30;1.60;;;;;;;13.98;100.00;94015.16;4975801;28;20281;-67
2024/02/09 12:02:53;;;;;;;2.00;1.20;;;;;;;14.09;100.00;94006.28;4976607;28;20268;-67
2024/02/09 12:05:20;;;;;;;3.13;1.40;;;;;;;13.78;100.00;94009.66;4976826;28;20209;-68
2024/02/09 12:07:48;;;;;;;3.15;1.30;;;;;;;14.04;100.00;94007.00;4976183;28;20207;-68
2024/02/09 12:10:14;;;;;;;3.20;1.30;;;;;;;13.89;100.00;94011.38;4975690;28;20254;-68
2024/02/09 12:12:41;;;;;;;5.28;1.42;;;;;;;13.89;100.00;94006.06;4974947;28;20208;-67
2024/02/09 12:15:08;;;;;;;2.20;1.40;;;;;;;13.99;100.00;94000.88;4975621;28;20231;-67
2024/02/09 12:17:35;;;;;;;3.60;1.40;;;;;;;14.13;100.00;93991.50;4976618;28;20204;-68
2024/02/09 12:20:10;;;;;;;2.97;1.60;;;;;;;14.17;100.00;93992.59;4975264;28;20231;-68
2024/02/09 12:22:37;;;;;;;1.90;1.15;;;;;;;14.47;100.00;93998.13;4976915;28;20215;-68
2024/02/09 12:25:06;;;;;;;1.38;1.00;;;;;;;14.55;100.00;93995.81;4977096;28;20204;-68
2024/02/09 12:27:32;;;;;;;3.15;2.00;;;;;;;14.59;100.00;93996.88;4975407;28;20203;-68
2024/02/09 12:30:02;;;;;;;3.38;1.48;;;;;;;14.46;100.00;93991.22;4975312;28;20231;-68
2024/02/09 12:32:29;;;;;;;4.30;1.37;;;;;;;14.16;100.00;93991.00;4976776;28;20199;-68
2024/02/09 12:34:56;;;;;;;3.08;1.48;;;;;;;14.43;100.00;93981.13;4976740;28;20773;-68
2024/02/09 12:37:24;;;;;;;1.73;1.10;;;;;;;14.49;100.00;93975.59;4976960;28;20243;-68
2024/02/09 12:39:53;;;;;;;4.32;1.60;;;;;;;14.07;100.00;93981.88;4976567;28;20204;-68
2024/02/09 12:42:22;;;;;;;7.00;2.50;;;;;;;14.38;100.00;93975.78;4976408;28;20207;-68
2024/02/09 12:44:50;;;;;;;27.42;6.95;;;;;;;14.10;100.00;93976.91;4976393;28;20622;-68
2024/02/09 12:47:17;;;;;;;13.90;4.33;;;;;;;14.15;100.00;93978.78;4976166;28;20264;-68
2024/02/09 12:49:46;;;;;;;18.65;3.75;;;;;;;13.97;100.00;93987.06;4977285;28;20211;-68
2024/02/09 12:52:14;;;;;;;4.80;1.90;;;;;;;13.57;100.00;93986.69;4976669;28;20203;-68
2024/02/09 12:54:40;;;;;;;6.55;3.05;;;;;;;13.74;100.00;93982.09;4976956;28;20211;-68
2024/02/09 12:57:08;;;;;;;20.40;7.43;;;;;;;13.96;100.00;93976.75;4976950;28;20612;-68
2024/02/09 12:59:36;;;;;;;15.40;6.18;;;;;;;14.21;100.00;93983.09;4976349;28;20207;-68
2024/02/09 13:02:04;;;;;;;8.07;3.67;;;;;;;13.74;100.00;93970.72;4976100;28;20207;-67
2024/02/09 13:04:31;;;;;;;4.20;1.60;;;;;;;13.60;100.00;93972.94;4975926;28;20741;-68
2024/02/09 13:06:58;;;;;;;7.50;3.63;;;;;;;13.64;100.00;93971.41;4975674;28;20231;-67
2024/02/09 13:09:24;;;;;;;3.55;1.70;;;;;;;13.67;100.00;93960.34;4975238;28;20203;-68
2024/02/09 13:11:52;;;;;;;8.73;2.97;;;;;;;13.88;100.00;93962.13;4974726;28;20219;-67
2024/02/09 13:14:19;;;;;;;11.68;3.75;;;;;;;13.63;100.00;93963.72;4975932;28;20215;-67